Time;durP1;ratioP1;P1;durP2;ratioP2;P2;SDS_P1;SDS_P2;PMS_P1;PMS_P2;Temp;Humidity;BMP_temperature;BMP_pressure;BME280_temperature;BME280_humidity;BME280_pressure;Samples;Min_cycle;Max_cycle;Signal;HPM_P1;HPM_P2
2022/04/15 00:01:32;;;;;;;3.35;2.05;;;;;;;8.71;56.52;100324.41;4967158;28;19922;-82
2022/04/15 00:03:58;;;;;;;1.70;1.60;;;;;;;8.68;56.64;100327.03;4968007;28;20039;-83
2022/04/15 00:06:24;;;;;;;2.88;2.67;;;;;;;8.88;56.57;100334.97;4959519;28;20554;-82
2022/04/15 00:08:50;;;;;;;;;;;;;;;8.61;57.02;100315.63;4967558;28;20043;-82
2022/04/15 00:11:15;;;;;;;1.73;1.63;;;;;;;8.81;57.01;100307.78;4967848;28;19981;-82
2022/04/15 00:13:41;;;;;;;;;;;;;;;8.91;56.70;100333.25;4968118;28;20460;-82
2022/04/15 00:16:07;;;;;;;1.95;1.60;;;;;;;8.93;55.98;100335.88;4967441;28;19918;-82
2022/04/15 00:18:34;;;;;;;1.17;1.08;;;;;;;8.79;55.80;100296.41;4967136;28;20062;-82
2022/04/15 00:21:00;;;;;;;2.28;2.17;;;;;;;9.10;55.95;100333.28;4967434;28;20023;-83
2022/04/15 00:23:26;;;;;;;2.20;1.45;;;;;;;8.86;56.81;100332.34;4966557;28;20043;-83
2022/04/15 00:25:52;;;;;;;;;;;;;;;8.77;57.13;100327.06;4967077;28;20034;-82
2022/04/15 00:28:18;;;;;;;2.70;2.30;;;;;;;8.84;56.32;100314.81;4967469;28;19922;-82
2022/04/15 00:30:44;;;;;;;2.65;2.45;;;;;;;8.93;56.01;100293.78;4971016;28;20031;-82
2022/04/15 00:33:09;;;;;;;;;;;;;;;9.08;56.21;100325.38;4970979;28;20587;-82
2022/04/15 00:35:35;;;;;;;3.83;2.13;;;;;;;9.00;56.43;100321.84;4970372;28;19929;-82
2022/04/15 00:38:00;;;;;;;;;;;;;;;9.00;56.08;100324.47;4970018;28;20094;-82
2022/04/15 00:40:26;;;;;;;1.38;1.27;;;;;;;8.89;55.28;100318.34;4966542;28;19919;-83
2022/04/15 00:42:51;;;;;;;;;;;;;;;8.77;55.42;100321.81;4951695;28;20421;-82
2022/04/15 00:45:17;;;;;;;;;;;;;;;8.66;55.07;100326.16;4963703;28;20004;-83
2022/04/15 00:47:51;;;;;;;0.95;0.90;;;;;;;8.45;56.62;100340.13;4970465;28;19914;-82
2022/04/15 00:50:19;;;;;;;1.60;1.50;;;;;;;8.03;57.75;100322.38;4970611;28;20576;-82
2022/04/15 00:52:47;;;;;;;2.20;2.10;;;;;;;7.84;59.02;100323.13;4970113;28;20043;-82
2022/04/15 00:55:14;;;;;;;2.47;1.50;;;;;;;8.16;57.91;100310.19;4969834;28;20038;-82
2022/04/15 00:57:41;;;;;;;1.48;1.38;;;;;;;8.42;57.02;100330.44;4970845;28;20046;-82
2022/04/15 01:00:09;;;;;;;2.42;2.33;;;;;;;8.34;56.88;100314.66;4970826;28;20070;-83
2022/04/15 01:02:34;;;;;;;2.05;1.95;;;;;;;8.47;56.55;100299.81;4970163;28;20030;-85
2022/04/15 01:05:01;;;;;;;;;;;;;;;8.30;57.13;100319.88;4970670;28;20042;-82
2022/04/15 01:07:32;;;;;;;3.47;2.88;;;;;;;8.32;57.00;100303.22;4970175;28;19968;-82
2022/04/15 01:09:59;;;;;;;2.42;2.22;;;;;;;8.35;56.30;100297.09;4969594;28;20050;-83
2022/04/15 01:12:28;;;;;;;1.73;1.65;;;;;;;8.50;56.71;100334.00;4970745;28;20092;-82
2022/04/15 01:15:02;;;;;;;2.42;2.15;;;;;;;8.31;57.34;100305.84;4970128;28;20050;-84
2022/04/15 01:17:28;;;;;;;1.10;1.10;;;;;;;8.41;56.38;100319.03;4969516;28;20093;-82
2022/04/15 01:19:54;;;;;;;2.88;2.53;;;;;;;8.34;56.33;100280.47;4970436;28;20408;-85
2022/04/15 01:22:23;;;;;;;2.72;2.58;;;;;;;8.38;56.56;100279.59;4969613;28;20042;-83
2022/04/15 01:24:49;;;;;;;2.40;2.30;;;;;;;8.33;56.76;100276.06;4969864;28;20042;-83
2022/04/15 01:27:27;;;;;;;;;;;;;;;8.54;57.14;100311.22;4969712;28;20553;-83
2022/04/15 01:29:53;;;;;;;1.60;1.50;;;;;;;8.32;57.60;100273.44;4969884;28;19910;-87
2022/04/15 01:32:19;;;;;;;;;;;;;;;8.48;56.98;100312.09;4970495;28;20030;-83
2022/04/15 01:34:44;;;;;;;1.52;1.42;;;;;;;8.22;57.15;100288.31;4969782;28;20312;-82
2022/04/15 01:37:14;;;;;;;1.05;0.95;;;;;;;8.28;57.05;100279.53;4967855;28;20105;-83
2022/04/15 01:39:40;;;;;;;3.85;3.50;;;;;;;8.19;57.11;100302.31;4968277;28;20410;-82
2022/04/15 01:42:05;;;;;;;;;;;;;;;8.27;57.16;100306.72;4968692;28;20101;-83
2022/04/15 01:44:31;;;;;;;1.10;1.10;;;;;;;8.37;57.09;100301.50;4968349;28;19921;-84
2022/04/15 01:46:56;;;;;;;;;;;;;;;8.40;56.88;100303.25;4969078;28;20054;-83
2022/04/15 01:49:21;;;;;;;;;;;;;;;8.51;56.97;100305.94;4969615;28;19929;-83
2022/04/15 01:51:47;;;;;;;5.27;2.13;;;;;;;7.96;57.55;100267.16;4968556;28;19921;-82
2022/04/15 01:54:12;;;;;;;;;;;;;;;8.02;57.98;100282.97;4970158;28;20544;-83
2022/04/15 01:56:39;;;;;;;0.70;0.70;;;;;;;8.34;57.40;100304.13;4968796;28;19918;-83
2022/04/15 01:59:09;;;;;;;1.77;1.48;;;;;;;8.46;57.71;100294.56;4967221;28;20428;-82
2022/04/15 02:01:34;;;;;;;1.42;1.40;;;;;;;8.49;57.80;100290.16;4968624;28;20184;-81
2022/04/15 02:04:00;;;;;;;;;;;;;;;8.50;58.01;100286.69;4969363;28;20137;-84
2022/04/15 02:06:25;;;;;;;;;;;;;;;8.52;58.58;100287.56;4969206;28;20064;-81
2022/04/15 02:08:51;;;;;;;1.13;1.13;;;;;;;8.46;58.41;100279.66;4969843;28;20350;-82
2022/04/15 02:11:16;;;;;;;;;;;;;;;8.43;58.42;100290.13;4968593;28;20047;-83
2022/04/15 02:13:41;;;;;;;1.70;1.60;;;;;;;8.33;58.63;100265.56;4968980;28;19918;-82
2022/04/15 02:16:07;;;;;;;2.33;2.22;;;;;;;8.25;58.70;100256.78;4967741;28;20038;-83
2022/04/15 02:18:32;;;;;;;;;;;;;;;8.40;58.84;100285.75;4969336;28;20062;-84
2022/04/15 02:20:57;;;;;;;;;;;;;;;8.41;58.85;100287.47;4967974;28;19922;-82
2022/04/15 02:23:23;;;;;;;2.17;2.07;;;;;;;8.16;58.86;100260.25;4968155;28;19957;-83
2022/04/15 02:25:48;;;;;;;;;;;;;;;8.34;58.93;100285.72;4968524;28;20112;-83
2022/04/15 02:28:14;;;;;;;1.15;1.08;;;;;;;8.27;58.80;100283.94;4968965;28;20372;-83
2022/04/15 02:30:39;;;;;;;;;;;;;;;8.12;59.39;100292.63;4968672;28;20509;-82
2022/04/15 02:33:05;;;;;;;1.13;1.13;;;;;;;7.80;60.95;100243.44;4967369;28;19918;-83
2022/04/15 02:35:30;;;;;;;;;;;;;;;8.09;61.11;100287.34;4968654;28;20042;-83
2022/04/15 02:37:55;;;;;;;;;;;;;;;8.01;61.75;100286.44;4969401;28;19918;-85
2022/04/15 02:40:21;;;;;;;1.93;1.83;;;;;;;7.87;61.55;100262.75;4967940;28;20595;-86
2022/04/15 02:42:47;;;;;;;0.90;0.90;;;;;;;7.73;64.12;100285.44;4967988;28;20815;-83
2022/04/15 02:45:12;;;;;;;;;;;;;;;7.89;63.91;100284.63;4969356;28;20121;-84
2022/04/15 02:47:40;;;;;;;3.00;2.70;;;;;;;7.65;63.41;100240.75;4968432;28;19917;-84
2022/04/15 02:50:06;;;;;;;2.03;1.67;;;;;;;7.67;63.16;100236.38;4967327;28;20413;-83
2022/04/15 02:52:34;;;;;;;2.22;1.95;;;;;;;7.84;62.67;100258.34;4968126;28;20151;-84
2022/04/15 02:54:59;;;;;;;1.17;1.08;;;;;;;7.91;62.71;100280.28;4968219;28;20121;-85
2022/04/15 02:57:25;;;;;;;;;;;;;;;7.66;60.73;100282.78;4968739;28;20165;-84
2022/04/15 02:59:50;;;;;;;;;;;;;;;7.69;60.16;100277.53;4968323;28;19914;-84
2022/04/15 03:02:16;;;;;;;2.90;1.73;;;;;;;7.65;60.30;100267.88;4967414;28;20020;-83
2022/04/15 03:04:41;;;;;;;;;;;;;;;7.83;60.84;100268.84;4968771;28;20039;-84
2022/04/15 03:07:07;;;;;;;1.83;1.75;;;;;;;7.83;60.27;100251.34;4968078;28;19918;-84
2022/04/15 03:09:32;;;;;;;;;;;;;;;7.74;60.74;100279.28;4968457;28;20047;-86
2022/04/15 03:11:57;;;;;;;;;;;;;;;7.45;62.37;100282.63;4968702;28;19922;-85
2022/04/15 03:14:23;;;;;;;2.67;2.47;;;;;;;7.61;61.82;100280.97;4968306;28;19914;-83
2022/04/15 03:16:48;;;;;;;;;;;;;;;7.61;61.70;100284.47;4968215;28;20035;-84
2022/04/15 03:19:13;;;;;;;;;;;;;;;7.53;61.93;100284.41;4968688;28;20020;-83
2022/04/15 03:21:39;;;;;;;1.97;1.17;;;;;;;7.41;61.40;100252.81;4967839;28;19997;-82
2022/04/15 03:24:05;;;;;;;;;;;;;;;7.61;61.61;100288.84;4968036;28;20808;-83
2022/04/15 03:26:30;;;;;;;2.15;2.00;;;;;;;7.44;61.04;100250.22;4967823;28;20039;-82
2022/04/15 03:28:56;;;;;;;4.13;3.67;;;;;;;7.66;61.05;100287.13;4965357;28;20050;-82
2022/04/15 03:31:21;;;;;;;;;;;;;;;7.54;61.47;100282.69;4949490;28;20031;-83
2022/04/15 03:33:47;;;;;;;1.10;1.10;;;;;;;7.54;61.28;100287.94;4967313;28;19918;-82
2022/04/15 03:36:12;;;;;;;;;;;;;;;7.38;61.57;100293.94;4968150;28;20116;-83
2022/04/15 03:38:38;;;;;;;;;;;;;;;7.36;61.97;100293.91;4967869;28;19957;-84
2022/04/15 03:41:03;;;;;;;;;;;;;;;7.35;62.25;100293.06;4968569;28;19969;-82
2022/04/15 03:43:29;;;;;;;1.00;1.00;;;;;;;7.31;62.16;100283.38;4966694;28;20426;-82
2022/04/15 03:45:55;;;;;;;3.40;3.10;;;;;;;7.04;62.08;100256.94;4967518;28;20448;-84
2022/04/15 03:48:20;;;;;;;;;;;;;;;7.16;62.40;100297.25;4967777;28;20105;-83
2022/04/15 03:50:46;;;;;;;1.55;1.17;;;;;;;6.96;62.20;100262.09;4967085;28;20308;-82
2022/04/15 03:53:11;;;;;;;3.67;3.08;;;;;;;7.11;61.92;100274.50;4967791;28;20118;-83
2022/04/15 03:55:36;;;;;;;;;;;;;;;7.09;62.25;100310.31;4968143;28;20050;-84
2022/04/15 03:58:02;;;;;;;2.42;2.33;;;;;;;6.76;62.57;100275.03;4968784;28;20013;-83
2022/04/15 04:00:27;;;;;;;;;;;;;;;6.93;62.57;100299.66;4969625;28;20072;-83
2022/04/15 04:02:54;;;;;;;;;;;;;;;6.91;62.98;100304.03;4974185;28;19925;-84
2022/04/15 04:05:21;;;;;;;5.43;4.93;;;;;;;6.60;63.18;100284.50;4974568;28;20003;-84
2022/04/15 04:07:46;;;;;;;13.05;2.42;;;;;;;6.78;62.61;100295.19;4972760;28;20034;-83
2022/04/15 04:10:12;;;;;;;;;;;;;;;6.61;62.47;100304.59;4965959;28;20066;-83
2022/04/15 04:12:38;;;;;;;1.20;1.08;;;;;;;6.86;61.35;100296.97;4964948;28;19929;-84
2022/04/15 04:15:05;;;;;;;;;;;;;;;6.84;61.67;100301.34;4972688;28;20038;-85
2022/04/15 04:17:30;;;;;;;1.52;1.45;;;;;;;7.08;61.22;100303.31;4971795;28;19925;-86
2022/04/15 04:19:56;;;;;;;;;;;;;;;7.28;61.09;100311.38;4971775;28;20066;-84
2022/04/15 04:22:26;;;;;;;1.65;1.55;;;;;;;7.41;60.60;100289.56;4971198;28;19922;-84
2022/04/15 04:24:51;;;;;;;1.25;1.25;;;;;;;7.78;59.23;100316.09;4970748;28;20035;-84
2022/04/15 04:27:17;;;;;;;;;;;;;;;7.96;59.33;100311.84;4970629;28;20524;-85
2022/04/15 04:29:42;;;;;;;1.60;1.50;;;;;;;8.23;58.29;100305.81;4967519;28;20046;-83
2022/04/15 04:32:08;;;;;;;;;;;;;;;8.45;58.26;100314.72;4950683;29;20126;-87
2022/04/15 04:34:33;;;;;;;1.38;1.33;;;;;;;8.53;57.56;100283.19;4957148;28;19918;-81
2022/04/15 04:36:58;;;;;;;;;;;;;;;8.86;56.46;100323.59;4970989;28;20039;-83
2022/04/15 04:39:26;;;;;;;;;;;;;;;8.89;56.59;100323.59;4971119;28;19922;-82
2022/04/15 04:41:51;;;;;;;0.82;0.82;;;;;;;8.92;56.30;100313.06;4970488;28;19918;-82
2022/04/15 04:44:17;;;;;;;;;;;;;;;9.20;57.28;100323.63;4970489;28;20034;-83
2022/04/15 04:46:42;;;;;;;0.80;0.80;;;;;;;9.48;55.70;100332.41;4970226;28;19922;-84
2022/04/15 04:49:08;;;;;;;;;;;;;;;9.70;55.63;100338.56;4970540;28;20524;-84
2022/04/15 04:51:33;;;;;;;0.70;0.70;;;;;;;9.86;54.25;100307.78;4969520;28;19976;-84
2022/04/15 04:53:59;;;;;;;;;;;;;;;10.24;53.29;100327.88;4971067;28;20527;-85
2022/04/15 04:56:24;;;;;;;;;;;;;;;10.25;53.21;100336.66;4963953;28;19918;-84
2022/04/15 04:58:49;;;;;;;2.60;2.40;;;;;;;10.36;53.11;100319.97;4960678;28;20389;-82
2022/04/15 05:01:15;;;;;;;;;;;;;;;10.65;52.39;100331.25;4970585;28;20046;-83
2022/04/15 05:03:40;;;;;;;;;;;;;;;10.57;52.82;100329.53;4970097;28;19918;-84
2022/04/15 05:06:06;;;;;;;15.33;3.30;;;;;;;10.55;53.44;100319.84;4970279;28;19921;-82
2022/04/15 05:08:31;;;;;;;;;;;;;;;10.51;53.80;100328.69;4970072;28;20049;-82
2022/04/15 05:10:56;;;;;;;;;;;;;;;10.62;54.68;100331.28;4970084;28;19918;-82
2022/04/15 05:13:22;;;;;;;0.73;0.73;;;;;;;10.65;54.66;100332.13;4969583;28;19914;-80
2022/04/15 05:15:47;;;;;;;;;;;;;;;10.78;54.19;100329.41;4970408;28;20037;-82
2022/04/15 05:18:14;;;;;;;1.98;1.88;;;;;;;10.88;54.59;100318.78;4969330;28;19945;-83
2022/04/15 05:20:40;;;;;;;1.50;1.38;;;;;;;10.92;53.41;100319.63;4969650;28;20047;-86
2022/04/15 05:23:05;;;;;;;;;;;;;;;11.03;50.88;100322.22;4969420;28;20398;-82
2022/04/15 05:25:30;;;;;;;1.27;1.17;;;;;;;11.00;52.68;100328.41;4967318;28;20455;-82
2022/04/15 05:27:58;;;;;;;;;;;;;;;11.27;51.47;100324.66;4968577;28;20034;-83
2022/04/15 05:30:24;;;;;;;2.58;2.20;;;;;;;11.33;51.87;100309.69;4968286;28;20324;-83
2022/04/15 05:32:50;;;;;;;1.38;1.27;;;;;;;11.28;50.75;100300.03;4969532;28;20119;-82
2022/04/15 05:35:15;;;;;;;;;;;;;;;11.32;50.46;100332.56;4970118;28;20042;-83
2022/04/15 05:37:40;;;;;;;;;;;;;;;11.37;50.15;100330.78;4969058;28;19924;-89
2022/04/15 05:40:06;;;;;;;1.27;1.17;;;;;;;11.56;49.99;100320.91;4967792;28;19921;-83
2022/04/15 05:42:32;;;;;;;2.03;1.88;;;;;;;11.79;49.43;100291.63;4963377;28;20552;-85
2022/04/15 05:44:57;;;;;;;;;;;;;;;11.85;47.85;100324.16;4967926;28;20062;-86
2022/04/15 05:47:23;;;;;;;;;;;;;;;11.79;48.92;100322.47;4964673;28;19957;-84
2022/04/15 05:49:48;;;;;;;1.60;1.50;;;;;;;12.38;48.92;100327.16;4969507;28;19924;-83
2022/04/15 05:52:14;;;;;;;;;;;;;;;12.29;47.75;100322.84;4968195;28;20076;-83
2022/04/15 05:54:39;;;;;;;;;;;;;;;12.46;47.10;100320.84;4966426;28;20667;-83
2022/04/15 05:57:05;;;;;;;2.50;1.80;;;;;;;12.71;47.12;100316.13;4967607;28;19917;-84
2022/04/15 05:59:30;;;;;;;;;;;;;;;13.00;47.15;100325.41;4966115;28;20035;-85
2022/04/15 06:01:55;;;;;;;;;;;;;;;13.44;44.60;100323.00;4969436;28;19918;-80
2022/04/15 06:04:21;;;;;;;1.97;1.73;;;;;;;13.29;45.44;100302.88;4960172;28;19918;-84
2022/04/15 06:06:47;;;;;;;;;;;;;;;13.63;46.00;100317.38;4967114;28;20368;-82
2022/04/15 06:09:12;;;;;;;;;;;;;;;14.12;45.07;100312.03;4964971;28;19966;-83
2022/04/15 06:11:39;;;;;;;1.52;1.35;;;;;;;13.83;44.88;100283.41;4964981;28;19937;-79
2022/04/15 06:14:06;;;;;;;1.55;1.42;;;;;;;14.09;42.40;100298.81;4968106;28;20436;-80
2022/04/15 06:16:32;;;;;;;2.05;1.52;;;;;;;14.29;41.33;100284.28;4968103;28;20505;-81
2022/04/15 06:19:01;;;;;;;1.90;1.73;;;;;;;14.37;41.51;100294.75;4969265;28;20124;-81
2022/04/15 06:21:26;;;;;;;2.47;1.10;;;;;;;14.98;40.79;100306.69;4968236;28;20035;-79
2022/04/15 06:23:52;;;;;;;;;;;;;;;14.89;40.32;100296.28;4969411;28;20060;-82
2022/04/15 06:26:17;;;;;;;;;;;;;;;15.52;41.17;100300.06;4968429;28;19946;-85
2022/04/15 06:28:42;;;;;;;;;;;;;;;15.58;39.75;100305.22;4969062;28;19957;-82
2022/04/15 06:31:08;;;;;;;1.47;1.13;;;;;;;15.20;40.17;100292.88;4968678;28;20320;-81
2022/04/15 06:33:33;;;;;;;;;;;;;;;15.35;40.02;100297.81;4968881;28;20282;-80
2022/04/15 06:35:59;;;;;;;;;;;;;;;15.14;39.78;100301.88;4967349;28;19953;-80
2022/04/15 06:38:24;;;;;;;;;;;;;;;15.56;40.47;100296.38;4969187;28;19914;-78
2022/04/15 06:40:50;;;;;;;0.90;0.77;;;;;;;15.09;39.72;100265.69;4969157;28;19914;-80
2022/04/15 06:43:15;;;;;;;0.80;0.80;;;;;;;15.24;38.34;100294.53;4968180;28;20070;-80
2022/04/15 06:45:41;;;;;;;;;;;;;;;15.18;38.61;100294.69;4969259;28;20038;-79
2022/04/15 06:48:07;;;;;;;1.38;0.95;;;;;;;15.58;38.59;100288.38;4967560;28;19924;-79
2022/04/15 06:50:32;;;;;;;;;;;;;;;15.82;38.66;100308.16;4969147;28;20041;-81
2022/04/15 06:52:58;;;;;;;1.25;1.15;;;;;;;16.25;37.12;100306.06;4967821;28;19922;-80
2022/04/15 06:55:23;;;;;;;;;;;;;;;16.00;36.87;100304.09;4968835;28;20031;-81
2022/04/15 06:57:48;;;;;;;1.60;1.50;;;;;;;16.53;38.06;100275.97;4968033;28;19921;-80
2022/04/15 07:00:14;;;;;;;;;;;;;;;16.86;36.07;100297.19;4968627;28;20048;-81
2022/04/15 07:02:43;;;;;;;1.23;1.13;;;;;;;17.44;35.49;100295.31;4968660;28;19926;-80
2022/04/15 07:05:10;;;;;;;2.03;1.63;;;;;;;17.81;37.92;100282.47;4968158;28;20061;-81
2022/04/15 07:07:39;;;;;;;1.52;0.88;;;;;;;18.41;34.30;100267.84;4968229;28;20035;-79
2022/04/15 07:10:07;;;;;;;1.52;1.23;;;;;;;18.30;33.59;100282.53;4962481;28;20050;-81
2022/04/15 07:12:33;;;;;;;5.15;1.98;;;;;;;18.65;33.70;100286.53;4968202;28;20122;-80
2022/04/15 07:14:59;;;;;;;0.88;0.88;;;;;;;18.38;32.41;100275.09;4966849;28;20465;-79
2022/04/15 07:17:25;;;;;;;0.82;0.57;;;;;;;17.97;32.92;100286.38;4968314;28;20030;-79
2022/04/15 07:19:51;;;;;;;1.60;1.50;;;;;;;18.31;33.91;100282.47;4968408;28;20050;-80
2022/04/15 07:22:18;;;;;;;3.17;1.77;;;;;;;18.05;32.92;100267.44;4967725;28;20026;-82
2022/04/15 07:24:44;;;;;;;7.78;1.15;;;;;;;18.35;33.64;100257.41;4968184;28;20560;-80
2022/04/15 07:27:09;;;;;;;1.90;1.50;;;;;;;18.45;32.64;100275.75;4967238;28;20124;-81
2022/04/15 07:29:35;;;;;;;2.92;1.65;;;;;;;18.02;34.08;100270.22;4966060;28;20086;-81
2022/04/15 07:32:00;;;;;;;2.60;1.65;;;;;;;18.48;32.77;100276.50;4968457;28;20026;-80
2022/04/15 07:34:26;;;;;;;2.30;1.23;;;;;;;17.85;33.00;100273.44;4967591;28;20097;-81
2022/04/15 07:36:57;;;;;;;3.75;1.90;;;;;;;18.17;34.13;100258.97;4969299;28;20038;-82
2022/04/15 07:39:23;;;;;;;0.65;0.65;;;;;;;18.27;32.51;100277.31;4969776;28;20420;-80
2022/04/15 07:41:49;;;;;;;1.80;0.80;;;;;;;18.32;34.45;100264.63;4971977;28;20050;-85
2022/04/15 07:44:16;;;;;;;1.33;1.20;;;;;;;17.78;32.43;100272.81;4972133;28;20493;-80
2022/04/15 07:46:42;;;;;;;1.23;0.80;;;;;;;18.37;33.29;100270.69;4971956;28;20034;-80
2022/04/15 07:49:09;;;;;;;3.17;2.05;;;;;;;18.31;32.50;100234.41;4971971;28;20402;-82
2022/04/15 07:51:36;;;;;;;2.00;1.25;;;;;;;18.81;31.56;100267.22;4971880;28;20058;-80
2022/04/15 07:54:03;;;;;;;6.25;2.53;;;;;;;18.91;32.29;100244.56;4970983;28;20039;-80
2022/04/15 07:56:29;;;;;;;1.33;1.00;;;;;;;19.06;30.92;100262.66;4971367;28;20035;-81
2022/04/15 07:58:54;;;;;;;0.98;0.93;;;;;;;19.06;30.31;100243.94;4971501;28;20516;-80
2022/04/15 08:01:20;;;;;;;2.10;1.35;;;;;;;19.57;31.79;100262.31;4969050;28;20057;-80
2022/04/15 08:03:48;;;;;;;1.02;0.82;;;;;;;19.79;30.47;100248.91;4971749;28;20039;-80
2022/04/15 08:06:15;;;;;;;2.90;1.75;;;;;;;20.04;31.08;100259.38;4971272;28;20053;-83
2022/04/15 08:08:40;;;;;;;1.85;1.50;;;;;;;19.82;29.56;100244.28;4971448;28;20560;-81
2022/04/15 08:11:06;;;;;;;1.83;1.42;;;;;;;19.80;29.25;100246.16;4970988;28;20042;-80
2022/04/15 08:13:32;;;;;;;1.55;0.75;;;;;;;19.69;27.68;100226.97;4971446;28;20038;-81
2022/04/15 08:15:58;;;;;;;2.30;1.30;;;;;;;19.57;29.78;100228.41;4971385;28;20088;-81
2022/04/15 08:18:24;;;;;;;4.85;1.00;;;;;;;20.30;29.62;100238.56;4971614;28;20121;-82
2022/04/15 08:20:52;;;;;;;1.70;1.02;;;;;;;20.15;28.21;100222.25;4970946;28;20058;-80
2022/04/15 08:23:18;;;;;;;2.67;1.40;;;;;;;20.08;28.67;100233.31;4971183;28;20039;-81
2022/04/15 08:25:44;;;;;;;1.25;1.10;;;;;;;20.93;26.70;100225.72;4970126;28;20089;-80
2022/04/15 08:28:10;;;;;;;1.23;1.10;;;;;;;21.40;26.47;100209.97;4971346;28;20062;-81
2022/04/15 08:30:37;;;;;;;2.47;1.50;;;;;;;21.43;26.85;100204.44;4968904;28;20436;-80
2022/04/15 08:33:05;;;;;;;15.30;3.10;;;;;;;21.63;26.00;100206.97;4971192;28;20093;-81
2022/04/15 08:35:31;;;;;;;1.33;1.23;;;;;;;22.16;25.70;100199.63;4970914;28;20191;-81
2022/04/15 08:37:57;;;;;;;2.00;1.15;;;;;;;22.13;25.28;100201.63;4969845;28;20035;-81
2022/04/15 08:40:22;;;;;;;1.05;0.88;;;;;;;22.20;25.97;100215.59;4971100;28;20163;-84
2022/04/15 08:42:48;;;;;;;1.00;0.68;;;;;;;21.63;28.71;100185.50;4970674;28;20049;-82
2022/04/15 08:45:14;;;;;;;1.25;0.90;;;;;;;21.21;26.60;100207.34;4971340;28;20033;-82
2022/04/15 08:47:40;;;;;;;1.42;0.80;;;;;;;21.63;26.31;100185.50;4970535;28;20162;-86
2022/04/15 08:50:10;;;;;;;2.42;1.88;;;;;;;22.03;25.24;100178.91;4970715;28;20046;-81
2022/04/15 08:52:36;;;;;;;1.42;0.95;;;;;;;21.98;26.54;100168.41;4970939;28;20485;-80
2022/04/15 08:55:03;;;;;;;3.35;1.77;;;;;;;22.27;26.06;100193.66;4970974;28;20030;-82
2022/04/15 08:57:29;;;;;;;1.95;0.77;;;;;;;21.41;27.41;100188.41;4970696;28;20035;-83
2022/04/15 08:59:55;;;;;;;1.42;1.13;;;;;;;21.56;26.59;100148.31;4970425;28;20031;-82
2022/04/15 09:02:31;;;;;;;2.20;1.60;;;;;;;22.04;25.64;100186.03;4970844;28;20448;-82
2022/04/15 09:04:57;;;;;;;2.75;1.50;;;;;;;21.56;25.71;100151.88;4970431;28;20489;-81
2022/04/15 09:07:22;;;;;;;1.75;1.35;;;;;;;21.25;26.18;100163.31;4969192;28;20489;-85
2022/04/15 09:09:57;;;;;;;2.65;1.90;;;;;;;21.97;27.01;100161.31;4970276;28;20035;-80
2022/04/15 09:12:28;;;;;;;3.88;1.50;;;;;;;22.05;25.13;100158.22;4970844;28;20035;-80
2022/04/15 09:15:08;;;;;;;0.95;0.90;;;;;;;21.97;28.40;100147.91;4970340;28;20088;-80
2022/04/15 09:17:40;;;;;;;2.10;1.52;;;;;;;22.76;25.32;100156.94;4970587;28;20063;-80
2022/04/15 09:20:09;;;;;;;4.00;1.50;;;;;;;22.75;24.09;100147.13;4970487;28;20031;-79
2022/04/15 09:22:35;;;;;;;3.33;1.10;;;;;;;22.68;27.29;100146.63;4969836;28;20049;-82
2022/04/15 09:25:01;;;;;;;3.03;1.38;;;;;;;22.30;26.93;100145.16;4950764;28;20038;-81
2022/04/15 09:27:28;;;;;;;4.97;2.67;;;;;;;21.91;27.38;100116.88;4951041;28;20031;-81
2022/04/15 09:29:57;;;;;;;3.33;1.50;;;;;;;22.11;27.16;100131.88;4950866;28;20094;-81
2022/04/15 09:32:24;;;;;;;3.28;2.33;;;;;;;22.41;27.39;100143.69;4951160;28;20484;-83
2022/04/15 09:34:58;;;;;;;2.55;1.20;;;;;;;22.10;28.74;100131.97;4951003;28;20031;-80
2022/04/15 09:37:26;;;;;;;1.50;1.30;;;;;;;21.84;28.40;100107.41;4951704;28;20082;-83
2022/04/15 09:40:07;;;;;;;1.95;1.50;;;;;;;21.72;28.31;100124.19;4970387;28;20026;-81
2022/04/15 09:42:34;;;;;;;9.27;2.80;;;;;;;21.80;27.84;100114.78;4967476;28;20416;-81
2022/04/15 09:45:14;;;;;;;4.25;1.40;;;;;;;21.97;26.69;100121.91;4970091;28;20035;-81
2022/04/15 09:47:39;;;;;;;3.92;1.60;;;;;;;21.72;25.66;100118.81;4969902;28;20449;-80
2022/04/15 09:50:07;;;;;;;0.98;0.90;;;;;;;21.50;25.84;100093.16;4969115;28;20039;-81
2022/04/15 09:52:32;;;;;;;1.40;0.70;;;;;;;21.75;24.64;100113.28;4969232;28;20050;-81
2022/04/15 09:55:01;;;;;;;1.08;0.63;;;;;;;21.67;25.64;100094.91;4969067;28;20035;-84
2022/04/15 09:57:33;;;;;;;1.65;1.15;;;;;;;21.49;24.58;100099.47;4969846;28;20039;-81
2022/04/15 10:00:02;;;;;;;1.67;1.02;;;;;;;21.48;25.33;100086.97;4969436;28;20056;-81
2022/04/15 10:02:32;;;;;;;2.65;1.20;;;;;;;22.05;25.46;100101.81;4969309;28;20541;-82
2022/04/15 10:04:57;;;;;;;2.10;1.50;;;;;;;21.89;24.65;100093.72;4969521;28;20031;-82
2022/04/15 10:07:23;;;;;;;2.67;1.95;;;;;;;21.91;25.84;100092.69;4969405;28;20089;-83
2022/04/15 10:09:49;;;;;;;2.60;1.48;;;;;;;21.84;26.76;100083.25;4969225;28;20066;-81
2022/04/15 10:12:15;;;;;;;1.02;0.95;;;;;;;21.80;25.40;100073.66;4972023;28;20039;-82
2022/04/15 10:14:41;;;;;;;1.73;1.40;;;;;;;21.52;28.75;100055.50;4972447;28;20081;-81
2022/04/15 10:17:07;;;;;;;1.17;0.90;;;;;;;21.61;27.82;100076.47;4972336;28;20035;-84
2022/04/15 10:19:34;;;;;;;2.05;1.42;;;;;;;21.63;28.06;100074.56;4971154;28;20172;-82
2022/04/15 10:22:00;;;;;;;1.55;1.02;;;;;;;22.06;26.04;100052.50;4968099;28;20143;-82
2022/04/15 10:24:25;;;;;;;1.38;0.88;;;;;;;22.30;26.07;100075.28;4969172;28;20047;-82
2022/04/15 10:26:58;;;;;;;2.05;1.40;;;;;;;22.05;28.37;100053.47;4969102;28;20049;-81
2022/04/15 10:29:24;;;;;;;3.97;1.35;;;;;;;22.44;26.27;100049.44;4969454;28;20035;-80
2022/04/15 10:31:49;;;;;;;2.83;0.85;;;;;;;22.49;25.84;100055.41;4969484;28;20074;-81
2022/04/15 10:34:17;;;;;;;3.35;1.55;;;;;;;21.95;25.99;100027.13;4968981;28;20462;-81
2022/04/15 10:36:54;;;;;;;1.40;1.08;;;;;;;21.76;26.56;100027.28;4968920;28;20030;-82
2022/04/15 10:39:22;;;;;;;1.33;1.10;;;;;;;22.12;26.80;100014.53;4969058;28;20045;-82
2022/04/15 10:41:53;;;;;;;0.75;0.70;;;;;;;22.65;28.53;100033.88;4968477;28;20034;-82
2022/04/15 10:44:29;;;;;;;2.70;1.30;;;;;;;22.60;27.43;100026.09;4968535;28;20525;-80
2022/04/15 10:47:04;;;;;;;3.85;1.92;;;;;;;22.69;28.74;100014.78;4968402;28;20058;-81
2022/04/15 10:49:30;;;;;;;1.27;0.73;;;;;;;22.47;27.37;100014.31;4969509;28;20066;-84
2022/04/15 10:52:03;;;;;;;2.25;1.52;;;;;;;22.56;27.12;100024.53;4969126;28;20078;-82
2022/04/15 10:54:35;;;;;;;2.25;1.40;;;;;;;22.83;27.32;100002.31;4968970;28;20031;-81
2022/04/15 10:57:11;;;;;;;4.65;2.00;;;;;;;22.89;28.62;100015.38;4968401;28;20030;-82
2022/04/15 11:02:24;;;;;;;1.77;1.30;;;;;;;22.66;28.72;99977.31;4968657;28;20141;-81
2022/04/15 11:04:51;;;;;;;1.95;1.73;;;;;;;23.10;27.45;99994.41;4968712;28;20041;-81
2022/04/15 11:07:25;;;;;;;1.10;1.00;;;;;;;22.98;27.92;99987.06;4969135;28;20041;-81
2022/04/15 11:09:51;;;;;;;1.73;1.25;;;;;;;22.59;28.72;99969.72;4968383;28;20037;-81
2022/04/15 11:12:42;;;;;;;1.95;1.17;;;;;;;22.80;28.15;99968.41;4968200;28;20038;-81
2022/04/15 11:15:08;;;;;;;0.98;0.80;;;;;;;22.57;27.42;99966.25;4968451;28;20027;-82
2022/04/15 11:17:44;;;;;;;2.13;1.67;;;;;;;22.65;28.85;99955.91;4968390;28;20041;-85
2022/04/15 11:20:10;;;;;;;1.65;1.25;;;;;;;22.89;27.21;99970.53;4967329;28;20117;-83
2022/04/15 11:22:40;;;;;;;1.70;1.23;;;;;;;22.57;27.57;99948.31;4949158;28;20513;-81
2022/04/15 11:25:14;;;;;;;1.50;1.15;;;;;;;22.76;30.33;99958.81;4948301;28;20038;-83
2022/04/15 11:27:41;;;;;;;2.33;1.65;;;;;;;23.00;29.05;99944.78;4949219;28;20035;-82
2022/04/15 11:30:16;;;;;;;1.60;1.05;;;;;;;23.04;29.19;99952.56;4960180;28;20039;-83
2022/04/15 11:32:51;;;;;;;1.85;1.05;;;;;;;23.05;28.81;99927.41;4968240;28;20069;-82
2022/04/15 11:35:31;;;;;;;0.57;0.45;;;;;;;23.39;29.76;99932.50;4967745;28;20125;-81
2022/04/15 11:38:05;;;;;;;1.08;0.93;;;;;;;23.44;28.48;99946.50;4967827;28;20166;-82
2022/04/15 11:40:36;;;;;;;1.15;1.05;;;;;;;23.12;27.12;99918.97;4968083;28;20093;-82
2022/04/15 11:43:08;;;;;;;1.67;0.98;;;;;;;23.02;27.50;99926.75;4967298;28;20120;-82
2022/04/15 11:45:42;;;;;;;1.13;0.70;;;;;;;23.23;28.16;99933.47;4968286;28;20046;-83
2022/04/15 11:48:34;;;;;;;4.28;1.80;;;;;;;23.00;27.41;99936.72;4968437;28;20417;-82